Aeroporto :
LOGIN :

Iscrizione | Disclaimer

   EN    FR    IT 

 










Sommario :    VFR   VFR Marginale   IFR   IFR Intensivo   IFR Molto Intensivo
Visibilità : 
Base nubi : 
>= 8 km
>= 3000ft
5 / 8 km
1000 / 3000 ft
1500m / 5 km
500 / 1000 ft
800 / 1500m
200 / 500 ft
< 800m
< 200 ft
Simboli :   Temporali  Nebbia  Neve Forte  Precipitazioni Forti  Vento > 20 kt
SIGMETs :   Varie  Temporali  Ghiacco  Turbolenza  Onda orograficha  Ceneri Vulcaniche






- Altitudine del aeroporto : 184 ft
- Codice IATA : BRU


EBBR - Bruxelles

ULTIMO METAR :
  • 230550Z 20003KT 8000 NSC 05/04 Q1026 TEMPO 4000 BR

METARs OBSOLETI :
  • 230520Z 17004KT 8000 NSC 05/04 Q1026 TEMPO 4000 BR
  • 230450Z 19001KT 8000 MIFG FEW044 06/05 Q1026 TEMPO 4000 BR
  • 230420Z 19002KT 9999 FEW044 05/04 Q1025 NOSIG
  • 230350Z 21004KT 9999 FEW044 06/05 Q1025 NOSIG
  • 230320Z 20004KT 9999 FEW044 07/06 Q1025 NOSIG

TAF TAF EBBR
Valido dal 23 a 06 ore il 24 a 12 ore UTC


230518Z 2306/2412 20004KT 8000 SCT040
PROB30
TEMPO 2306/2308 3000 MIFG BR



MetMap, La meteo Aeronautica in un colpo d'occhio ! - Copyright ORBIFLY Dicembre 2007 - Disclaimer

ORBIFLY MET'MAP TEAM :

Programmazione e sviluppo : Alexandra Zaïnal
Concezione : Baudouin d'Aumeries
Aiuto per la programmazione : Marc-Olivier Méhu
Supporto tecnico e logistico : Manuel Goepfert
Aiuto per la traduzione : Arnaldo La Scala

Contatto : metmap@orbifly.com




FONTI E CREDITI :

   NOAA